KBHM/BHM METAR and TAF weather

Enter ICAO airport designator
Station Type Date Time Source
KBHM METAR 2019/04/21 21:53 UTC NOAA

KBHM 212153Z 29008KT 270V350 10SM CLR 24/04 A3012 RMK AO2 SLP197 T02440044


Station Type Date Time Source
KBHM Decoded METAR 2019/04/21 21:53 UTC NOAA

BIRMINGHAM INT'L AIRPORT, AL, United States (KBHM) 33-34N 086-45W 197M
Apr 21, 2019 - 05:53 PM EDT / 2019.04.21 2153 UTC
Wind: from the WNW (290 degrees) at 9 MPH (8 KT) (direction variable):0
Visibility: 10 mile(s):0
Sky conditions: clear
Temperature: 75.9 F (24.4 C)
Dew Point: 39.9 F (4.4 C)
Relative Humidity: 27%
Pressure (altimeter): 30.12 in. Hg (1019 hPa)
ob: KBHM 212153Z 29008KT 270V350 10SM CLR 24/04 A3012 RMK AO2 SLP197 T02440044
cycle: 22

Station Type Date Time Source
KBHM TAF 2019/04/21 18:34 UTC NOAA

TAF KBHM 211732Z 2118/2218 28007KT P6SM SKC
FM220100 27003KT P6SM SKC
FM221500 24004KT P6SM SKC

Example: see airport list